Sy Oceanica I — DACJ — position and weather

sailwx.info

Track history (hours):
 
Tides and Currents Weather Stations Pressure Air Temp Water Temp Dewpoint Dewpoint Depression Visibility Wind Speed Wind Dir Waves Ship Positions

Sy Oceanica I

Last reported at 2017-Nov-15 17:29 UTC. Time now 2017-Nov-20 17:32 UTC.
Position N 28°58' W 013°32'.

Length 16 m.

Type: Sailing vessel. MMSI: 211650220.

Date/timePositionNaut miles runAvg speedWind from/ knotsBaromVisibWave heightAir tempDewpointWater temp
2017-Nov-15 17:29N 28°58' W 013°32'3 4.0
2017-Nov-15 16:47N 28°59' W 013°30'0 0.5
2017-Nov-15 16:28N 28°59' W 013°30'1 2.1
2017-Nov-15 15:57N 28°60' W 013°28'  
2017-Nov-11 05:26N 29°43' W 015°15'3 7.7
2017-Nov-11 04:59N 29°41' W 015°12'8 7.9
2017-Nov-11 03:58N 29°36' W 015°05'81 3.2
2017-Nov-10 02:38N 28°51' W 013°48'0 0.0
2017-Nov-10 02:26N 28°51' W 013°48'0 0.0
2017-Nov-10 01:05N 28°51' W 013°48'0 0.0
2017-Nov-10 00:56N 28°51' W 013°48'  
2017-Nov-07 15:01N 28°57' W 013°33'0 6.8
2017-Nov-07 14:59N 28°57' W 013°33'1 1.7
2017-Nov-07 14:21N 28°58' W 013°32'0 0.0
2017-Nov-06 00:15N 28°58' W 013°32'  
Track history (hours):
 
Tides and Currents Weather Stations Pressure Air Temp Water Temp Dewpoint Dewpoint Depression Visibility Wind Speed Wind Dir Waves Ship Positions

Sy Oceanica I

Last reported at 2017-Nov-15 17:29 UTC. Time now 2017-Nov-20 17:32 UTC.
Position N 28°58' W 013°32'.

Length 16 m.

Type: Sailing vessel. MMSI: 211650220.

Date/timePositionNaut miles runAvg speedWind from/ knotsBaromVisibWave heightAir tempDewpointWater temp
2017-Nov-15 17:29N 28°58' W 013°32'3 4.0
2017-Nov-15 16:47N 28°59' W 013°30'0 0.5
2017-Nov-15 16:28N 28°59' W 013°30'1 2.1
2017-Nov-15 15:57N 28°60' W 013°28'  
2017-Nov-11 05:26N 29°43' W 015°15'3 7.7
2017-Nov-11 04:59N 29°41' W 015°12'8 7.9
2017-Nov-11 03:58N 29°36' W 015°05'81 3.2
2017-Nov-10 02:38N 28°51' W 013°48'0 0.0
2017-Nov-10 02:26N 28°51' W 013°48'0 0.0
2017-Nov-10 01:05N 28°51' W 013°48'0 0.0
2017-Nov-10 00:56N 28°51' W 013°48'  
2017-Nov-07 15:01N 28°57' W 013°33'0 6.8
2017-Nov-07 14:59N 28°57' W 013°33'1 1.7
2017-Nov-07 14:21N 28°58' W 013°32'0 0.0
2017-Nov-06 00:15N 28°58' W 013°32'  

Dump ship's entire track history